Fort Motte, South Carolina
Current Conditions -  °F | °C
As of 5:58 PM on Tuesday 21 Oct 2014 (Local Time) from KMMT Reporting Station
Few Clouds Few Clouds  
Wind Chill: 75°   Ceiling: Unl
Heat Index: 75°   Visibility: 10mi
Dew Point: 47°   Wind: 0mph
Humidity: 37%   Direction: NA
Pressure: 29.86"   Gusts: NA
Location:  33.7122°N, 80.8747°W
Report Text: KMMT 212158Z 00000KT 10SM FEW060 24/09 A2986 RMK AO2A SLP113 T02400086
Loading
Personal Weather Stations






























Interactive Weather Map
Tropical Storm Tracking
New forecast layout! Learn more

10-Day Weather Forecast

Advertisements
Track Severe Weather on mobile